Time;durP1;ratioP1;P1;durP2;ratioP2;P2;SDS_P1;SDS_P2;PMS_P1;PMS_P2;Temp;Humidity;BMP_temperature;BMP_pressure;BME280_temperature;BME280_humidity;BME280_pressure;Samples;Min_cycle;Max_cycle;Signal;HPM_P1;HPM_P2
2021/12/18 00:01:04;;;;;;;6.25;4.05;;;;;;;;;;4995469;28;20133;-81
2021/12/18 00:03:30;;;;;;;6.93;4.32;;;;;;;;;;4995563;28;20037;-80
2021/12/18 00:05:56;;;;;;;5.47;4.13;;;;;;;;;;5007030;28;20086;-81
2021/12/18 00:08:22;;;;;;;5.90;3.97;;;;;;;;;;5008620;28;20042;-82
2021/12/18 00:10:49;;;;;;;8.40;4.60;;;;;;;;;;5007055;28;20030;-81
2021/12/18 00:13:15;;;;;;;6.10;3.88;;;;;;;;;;5001267;28;20375;-81
2021/12/18 00:15:41;;;;;;;4.80;3.72;;;;;;;;;;5000755;28;20033;-81
2021/12/18 00:18:07;;;;;;;8.13;4.03;;;;;;;;;;5000715;28;20149;-81
2021/12/18 00:20:35;;;;;;;5.82;4.00;;;;;;;;;;5000458;28;20066;-81
2021/12/18 00:23:01;;;;;;;8.15;3.72;;;;;;;;;;5000890;28;20030;-81
2021/12/18 00:25:27;;;;;;;4.68;3.63;;;;;;;;;;5000775;28;20053;-81
2021/12/18 00:27:53;;;;;;;4.95;3.55;;;;;;;;;;4999783;28;20102;-81
2021/12/18 00:30:19;;;;;;;6.07;3.70;;;;;;;;;;5000136;28;20031;-81
2021/12/18 00:32:45;;;;;;;5.95;3.72;;;;;;;;;;4999738;28;20030;-82
2021/12/18 00:35:12;;;;;;;5.72;3.70;;;;;;;;;;4982128;28;20057;-80
2021/12/18 00:37:38;;;;;;;7.68;4.10;;;;;;;;;;4999625;28;20030;-81
2021/12/18 00:40:09;;;;;;;7.38;3.88;;;;;;;;;;4999263;28;20045;-81
2021/12/18 00:45:01;;;;;;;7.93;4.57;;;;;;;;;;5003625;28;20034;-80
2021/12/18 00:47:27;;;;;;;10.93;4.25;;;;;;;;;;4998633;28;20030;-81
2021/12/18 00:49:53;;;;;;;8.80;4.93;;;;;;;;;;4999272;28;20026;-81
2021/12/18 00:52:19;;;;;;;7.07;4.18;;;;;;;;;;4998300;28;20070;-81
2021/12/18 00:54:45;;;;;;;7.30;4.18;;;;;;;;;;4998257;28;20058;-80
2021/12/18 00:57:11;;;;;;;10.25;5.13;;;;;;;;;;4998296;28;20494;-81
2021/12/18 00:59:37;;;;;;;8.80;4.82;;;;;;;;;;4999370;28;20030;-81
2021/12/18 01:02:04;;;;;;;10.32;5.88;;;;;;;;;;4981736;28;20465;-81
2021/12/18 01:04:30;;;;;;;7.78;4.10;;;;;;;;;;4998818;28;20096;-81
2021/12/18 01:06:56;;;;;;;7.13;4.60;;;;;;;;;;4997720;28;20026;-81
2021/12/18 01:09:34;;;;;;;6.78;4.25;;;;;;;;;;4997840;28;20373;-81
2021/12/18 01:12:00;;;;;;;8.38;4.45;;;;;;;;;;4980032;28;20057;-80
2021/12/18 01:14:43;;;;;;;8.90;4.32;;;;;;;;;;4997375;28;20137;-81
2021/12/18 01:25:06;;;;;;;5.68;3.58;;;;;;;;;;4996636;28;20061;-80
2021/12/18 01:27:32;;;;;;;5.22;3.72;;;;;;;;;;4997326;28;20026;-81
2021/12/18 01:29:58;;;;;;;7.43;3.45;;;;;;;;;;4996631;28;20360;-81
2021/12/18 01:32:26;;;;;;;5.28;3.75;;;;;;;;;;4997090;28;20050;-80
2021/12/18 01:34:52;;;;;;;9.07;3.78;;;;;;;;;;4996931;28;20026;-80
2021/12/18 01:37:20;;;;;;;5.70;3.90;;;;;;;;;;4996604;28;20054;-80
2021/12/18 01:39:46;;;;;;;5.68;3.30;;;;;;;;;;4979893;28;20065;-80
2021/12/18 01:52:46;;;;;;;4.63;3.25;;;;;;;;;;4997642;28;20041;-80
2021/12/18 01:55:12;;;;;;;5.25;3.15;;;;;;;;;;4998682;28;20022;-80
2021/12/18 01:57:38;;;;;;;8.63;3.53;;;;;;;;;;4999512;28;20033;-80
2021/12/18 02:00:17;;;;;;;7.28;3.75;;;;;;;;;;5000137;28;20034;-81
2021/12/18 02:02:43;;;;;;;7.38;4.03;;;;;;;;;;5003455;28;20105;-81
2021/12/18 02:05:09;;;;;;;4.13;3.40;;;;;;;;;;4999202;28;20030;-82
2021/12/18 02:07:35;;;;;;;8.38;4.70;;;;;;;;;;5000862;28;20124;-81
2021/12/18 02:10:05;;;;;;;4.63;3.17;;;;;;;;;;4997785;28;20467;-82
2021/12/18 02:12:45;;;;;;;5.65;3.58;;;;;;;;;;4978765;28;20018;-82
2021/12/18 02:20:51;;;;;;;6.53;4.13;;;;;;;;;;4995619;28;20046;-82
2021/12/18 02:23:17;;;;;;;7.32;4.28;;;;;;;;;;4997327;28;20030;-82
2021/12/18 02:25:47;;;;;;;6.95;4.32;;;;;;;;;;4979005;28;20026;-82
2021/12/18 02:28:20;;;;;;;5.43;3.88;;;;;;;;;;4978290;28;20030;-82
2021/12/18 02:30:47;;;;;;;7.22;4.03;;;;;;;;;;4997731;28;20101;-82
2021/12/18 02:33:13;;;;;;;6.45;4.10;;;;;;;;;;4979026;28;20073;-82
2021/12/18 02:35:46;;;;;;;9.73;5.20;;;;;;;;;;4979386;28;20110;-81
2021/12/18 02:38:20;;;;;;;6.72;4.20;;;;;;;;;;4998279;28;20451;-82
2021/12/18 02:41:07;;;;;;;8.93;4.15;;;;;;;;;;4998457;28;20118;-81
2021/12/18 02:43:35;;;;;;;8.77;4.45;;;;;;;;;;5001457;28;20018;-81
2021/12/18 02:46:06;;;;;;;8.75;4.75;;;;;;;;;;5016474;28;20029;-81
2021/12/18 02:48:33;;;;;;;6.95;4.93;;;;;;;;;;5009314;28;20033;-82
2021/12/18 02:50:59;;;;;;;7.53;4.45;;;;;;;;;;4997961;28;20404;-81
2021/12/18 02:53:26;;;;;;;7.70;4.38;;;;;;;;;;4997403;28;20022;-81
2021/12/18 02:55:59;;;;;;;6.18;3.88;;;;;;;;;;5000447;28;20101;-80
2021/12/18 02:58:25;;;;;;;4.82;3.50;;;;;;;;;;4977871;28;20122;-81
2021/12/18 03:00:52;;;;;;;5.53;3.53;;;;;;;;;;4997081;28;20034;-81
2021/12/18 03:03:19;;;;;;;6.57;4.20;;;;;;;;;;4995961;28;20133;-81
2021/12/18 03:06:00;;;;;;;7.20;4.63;;;;;;;;;;4995990;28;20109;-80
2021/12/18 03:08:40;;;;;;;7.95;4.72;;;;;;;;;;4996355;28;20038;-81
2021/12/18 03:25:16;;;;;;;12.20;4.68;;;;;;;;;;4977252;28;19920;-80
2021/12/18 03:27:42;;;;;;;8.88;5.63;;;;;;;;;;4983269;28;20468;-80
2021/12/18 03:30:08;;;;;;;8.18;5.00;;;;;;;;;;5000720;28;20030;-80
2021/12/18 03:32:34;;;;;;;11.25;5.55;;;;;;;;;;5001033;28;20022;-80
2021/12/18 03:35:01;;;;;;;8.68;5.57;;;;;;;;;;5002157;28;20034;-80
2021/12/18 03:37:27;;;;;;;13.60;6.10;;;;;;;;;;5011618;28;20022;-81
2021/12/18 03:39:53;;;;;;;8.85;5.43;;;;;;;;;;5001734;28;20034;-81
2021/12/18 03:42:19;;;;;;;12.73;5.43;;;;;;;;;;4984443;28;20060;-81
2021/12/18 03:44:45;;;;;;;7.72;5.20;;;;;;;;;;5015366;28;20624;-81
2021/12/18 03:47:11;;;;;;;9.07;4.95;;;;;;;;;;5002582;28;20033;-83
2021/12/18 03:49:38;;;;;;;8.10;5.18;;;;;;;;;;5003029;28;20098;-80
2021/12/18 03:52:04;;;;;;;11.73;6.18;;;;;;;;;;5001554;28;20034;-81
2021/12/18 03:54:30;;;;;;;9.20;5.18;;;;;;;;;;5000833;28;20023;-81
2021/12/18 03:56:56;;;;;;;10.15;5.50;;;;;;;;;;4982892;28;20049;-81
2021/12/18 03:59:22;;;;;;;7.28;5.03;;;;;;;;;;5001765;28;20054;-82
2021/12/18 04:01:48;;;;;;;10.10;6.10;;;;;;;;;;5000366;28;20022;-81
2021/12/18 04:04:17;;;;;;;10.05;6.20;;;;;;;;;;5000158;28;20092;-82
2021/12/18 04:06:43;;;;;;;11.20;5.60;;;;;;;;;;4982588;28;20049;-81
2021/12/18 04:09:11;;;;;;;8.75;4.82;;;;;;;;;;4999827;28;20026;-81
2021/12/18 04:11:37;;;;;;;8.88;5.47;;;;;;;;;;5000457;28;20018;-81
2021/12/18 04:14:04;;;;;;;10.80;6.30;;;;;;;;;;5000182;28;20018;-81
2021/12/18 04:16:30;;;;;;;13.65;6.18;;;;;;;;;;4999354;28;20023;-82
2021/12/18 04:18:56;;;;;;;13.25;7.13;;;;;;;;;;4999125;28;20037;-81
2021/12/18 04:21:22;;;;;;;10.18;6.13;;;;;;;;;;5000072;28;20030;-81
2021/12/18 04:23:48;;;;;;;16.00;7.30;;;;;;;;;;4996235;28;20033;-81
2021/12/18 04:26:14;;;;;;;10.77;6.63;;;;;;;;;;4994534;28;20057;-81
2021/12/18 04:28:40;;;;;;;10.65;6.63;;;;;;;;;;4995182;28;20527;-82
2021/12/18 04:31:06;;;;;;;11.85;7.07;;;;;;;;;;4997444;28;20087;-82
2021/12/18 04:33:32;;;;;;;9.85;6.25;;;;;;;;;;4995598;28;20145;-82
2021/12/18 04:35:58;;;;;;;15.80;6.90;;;;;;;;;;4997816;28;20018;-80
2021/12/18 04:38:24;;;;;;;14.80;7.47;;;;;;;;;;4978767;28;20034;-82
2021/12/18 04:40:53;;;;;;;16.17;8.70;;;;;;;;;;4996444;28;20065;-80
2021/12/18 04:43:19;;;;;;;14.15;7.57;;;;;;;;;;4997970;28;20030;-81
2021/12/18 04:45:45;;;;;;;13.10;7.60;;;;;;;;;;5003141;28;20038;-81
2021/12/18 04:48:11;;;;;;;15.60;8.07;;;;;;;;;;4998497;28;20030;-80
2021/12/18 04:50:37;;;;;;;17.48;8.38;;;;;;;;;;4997743;28;20026;-80
2021/12/18 04:53:03;;;;;;;14.40;8.43;;;;;;;;;;4998569;28;20034;-81
2021/12/18 04:55:29;;;;;;;15.98;8.05;;;;;;;;;;5001766;28;20078;-80
2021/12/18 04:57:55;;;;;;;14.43;8.30;;;;;;;;;;5008131;28;20026;-81
2021/12/18 05:00:27;;;;;;;16.92;9.10;;;;;;;;;;4991540;28;20052;-81
2021/12/18 05:02:54;;;;;;;15.80;8.13;;;;;;;;;;5003265;28;20057;-83
2021/12/18 05:05:21;;;;;;;15.98;8.48;;;;;;;;;;5000666;28;20038;-81
2021/12/18 05:07:47;;;;;;;15.75;8.93;;;;;;;;;;4983092;28;20030;-81
2021/12/18 05:10:13;;;;;;;16.75;8.90;;;;;;;;;;4999948;28;20022;-81
2021/12/18 05:12:40;;;;;;;17.60;9.15;;;;;;;;;;4999818;28;20050;-81
2021/12/18 05:15:07;;;;;;;17.88;10.35;;;;;;;;;;5000456;28;20057;-82
2021/12/18 05:17:33;;;;;;;15.70;8.82;;;;;;;;;;5000050;28;20105;-81
2021/12/18 05:19:59;;;;;;;21.65;10.07;;;;;;;;;;5000094;28;20108;-82
2021/12/18 05:22:25;;;;;;;25.73;11.65;;;;;;;;;;4999971;28;20049;-82
2021/12/18 05:24:51;;;;;;;20.17;10.73;;;;;;;;;;5000072;28;20500;-82
2021/12/18 05:27:17;;;;;;;19.10;10.05;;;;;;;;;;4999250;28;20030;-81
2021/12/18 05:29:43;;;;;;;23.50;11.18;;;;;;;;;;4998421;28;20064;-81
2021/12/18 05:32:09;;;;;;;27.05;10.98;;;;;;;;;;4999175;28;20026;-82
2021/12/18 05:34:38;;;;;;;22.35;11.00;;;;;;;;;;4999764;28;20031;-82
2021/12/18 05:39:37;;;;;;;27.23;11.90;;;;;;;;;;4998691;28;20065;-82
2021/12/18 05:42:06;;;;;;;23.50;11.73;;;;;;;;;;4981388;28;20021;-82
2021/12/18 05:44:32;;;;;;;25.75;12.32;;;;;;;;;;5011491;28;20025;-82
2021/12/18 05:46:58;;;;;;;26.88;11.18;;;;;;;;;;5018465;28;20391;-81
2021/12/18 05:49:24;;;;;;;26.45;11.80;;;;;;;;;;4983601;28;20077;-81
2021/12/18 05:51:51;;;;;;;24.40;12.23;;;;;;;;;;4998832;28;20407;-82
2021/12/18 05:54:17;;;;;;;24.15;11.18;;;;;;;;;;4998550;28;20029;-82
2021/12/18 05:56:44;;;;;;;23.23;11.70;;;;;;;;;;4998954;28;20094;-82
2021/12/18 05:59:12;;;;;;;25.13;13.23;;;;;;;;;;4998814;28;20030;-82
2021/12/18 06:01:38;;;;;;;25.98;12.10;;;;;;;;;;5007614;28;20529;-82
2021/12/18 06:04:04;;;;;;;23.33;11.98;;;;;;;;;;5018225;28;20025;-82
2021/12/18 06:06:36;;;;;;;28.88;12.93;;;;;;;;;;5011268;28;20455;-82
2021/12/18 06:09:02;;;;;;;25.00;12.85;;;;;;;;;;4998967;28;20062;-81
2021/12/18 06:11:31;;;;;;;24.20;12.73;;;;;;;;;;4999135;28;20029;-82
2021/12/18 06:13:57;;;;;;;26.00;12.30;;;;;;;;;;4998899;28;20038;-81
2021/12/18 06:16:23;;;;;;;24.52;12.10;;;;;;;;;;4997576;28;20571;-82
2021/12/18 06:18:50;;;;;;;21.02;11.65;;;;;;;;;;4997917;28;20152;-82
2021/12/18 06:21:17;;;;;;;25.88;13.20;;;;;;;;;;4998185;28;20037;-82
2021/12/18 06:23:47;;;;;;;24.55;11.90;;;;;;;;;;4980299;28;20034;-81
2021/12/18 06:26:14;;;;;;;28.58;13.07;;;;;;;;;;4998909;28;20034;-81
2021/12/18 06:28:40;;;;;;;22.20;11.50;;;;;;;;;;4981539;28;20057;-81
2021/12/18 06:31:06;;;;;;;27.73;12.13;;;;;;;;;;4998690;28;20022;-81
2021/12/18 06:33:32;;;;;;;28.40;12.20;;;;;;;;;;4999011;28;20023;-81
2021/12/18 06:35:59;;;;;;;21.88;11.90;;;;;;;;;;4997974;28;20037;-81
2021/12/18 06:38:25;;;;;;;27.67;12.77;;;;;;;;;;4998755;28;20036;-81
2021/12/18 06:40:51;;;;;;;24.05;12.00;;;;;;;;;;4999747;28;20038;-81
2021/12/18 06:43:17;;;;;;;24.40;12.25;;;;;;;;;;5000196;28;20034;-81
2021/12/18 06:45:43;;;;;;;21.17;10.82;;;;;;;;;;5018678;28;20109;-81
2021/12/18 06:48:09;;;;;;;26.05;13.02;;;;;;;;;;5018726;28;20030;-81
2021/12/18 06:50:36;;;;;;;25.67;13.00;;;;;;;;;;5020223;28;20014;-81
2021/12/18 06:53:02;;;;;;;26.52;12.68;;;;;;;;;;5012931;28;20430;-81
2021/12/18 06:55:28;;;;;;;23.50;13.07;;;;;;;;;;5001813;28;20034;-81
2021/12/18 06:57:55;;;;;;;24.25;11.68;;;;;;;;;;4999805;28;20038;-82
2021/12/18 07:00:21;;;;;;;24.48;12.18;;;;;;;;;;4984139;28;20505;-82
2021/12/18 07:02:47;;;;;;;23.00;11.88;;;;;;;;;;4983310;28;20097;-82
2021/12/18 07:05:14;;;;;;;23.17;11.82;;;;;;;;;;5000529;28;20034;-83
2021/12/18 07:07:41;;;;;;;24.85;12.57;;;;;;;;;;4999047;28;20061;-83
2021/12/18 07:10:08;;;;;;;21.13;11.15;;;;;;;;;;5000691;28;20030;-79
2021/12/18 07:12:34;;;;;;;23.98;11.77;;;;;;;;;;4998973;28;20049;-81
2021/12/18 07:15:01;;;;;;;26.77;12.55;;;;;;;;;;4998791;28;20053;-81
2021/12/18 07:17:27;;;;;;;26.38;12.65;;;;;;;;;;4983634;28;20027;-81
2021/12/18 07:19:53;;;;;;;20.88;11.27;;;;;;;;;;5002232;28;20428;-83
2021/12/18 07:22:19;;;;;;;22.92;11.60;;;;;;;;;;4984165;28;20030;-81
2021/12/18 07:24:44;;;;;;;23.60;11.75;;;;;;;;;;5001840;28;20395;-81
2021/12/18 07:27:10;;;;;;;23.50;11.60;;;;;;;;;;5001449;28;20034;-82
2021/12/18 07:29:36;;;;;;;25.00;11.85;;;;;;;;;;5001084;28;20027;-82
2021/12/18 07:32:03;;;;;;;22.33;11.30;;;;;;;;;;5000731;28;20113;-81
2021/12/18 07:34:29;;;;;;;23.77;11.63;;;;;;;;;;5001659;28;20050;-82
2021/12/18 07:36:55;;;;;;;23.73;12.40;;;;;;;;;;5001557;28;20026;-82
2021/12/18 07:39:21;;;;;;;24.23;11.90;;;;;;;;;;5001271;28;20040;-81
2021/12/18 07:41:47;;;;;;;20.48;11.98;;;;;;;;;;5000262;28;20085;-82
2021/12/18 07:44:13;;;;;;;22.63;11.90;;;;;;;;;;5010289;28;20025;-82
2021/12/18 07:46:39;;;;;;;21.23;10.63;;;;;;;;;;5020991;28;20029;-82
2021/12/18 07:49:06;;;;;;;23.95;12.63;;;;;;;;;;5001491;28;20022;-83
2021/12/18 07:51:32;;;;;;;24.42;11.48;;;;;;;;;;4984573;28;20026;-84
2021/12/18 07:54:10;;;;;;;22.55;11.25;;;;;;;;;;5001810;28;20027;-84
2021/12/18 07:56:36;;;;;;;22.83;11.50;;;;;;;;;;5004799;28;20026;-86
2021/12/18 07:59:03;;;;;;;25.33;12.55;;;;;;;;;;5023745;28;20666;-83
2021/12/18 08:01:29;;;;;;;21.63;11.55;;;;;;;;;;5024075;28;20030;-84
2021/12/18 08:03:55;;;;;;;25.83;11.95;;;;;;;;;;5006119;28;20038;-84
2021/12/18 08:06:21;;;;;;;24.25;12.50;;;;;;;;;;5001095;28;20115;-85
2021/12/18 08:08:53;;;;;;;23.38;11.93;;;;;;;;;;5002048;28;20061;-84
2021/12/18 08:11:19;;;;;;;23.13;12.23;;;;;;;;;;4984041;28;20022;-84
2021/12/18 08:13:48;;;;;;;24.67;12.43;;;;;;;;;;4985383;28;20538;-85
2021/12/18 08:16:14;;;;;;;23.10;11.95;;;;;;;;;;4981846;28;20035;-84
2021/12/18 08:18:43;;;;;;;24.20;11.68;;;;;;;;;;4982993;28;20022;-84
2021/12/18 08:21:09;;;;;;;24.95;13.00;;;;;;;;;;4984124;28;20389;-84
2021/12/18 08:23:35;;;;;;;22.88;11.65;;;;;;;;;;5002584;28;20118;-84
2021/12/18 08:26:01;;;;;;;27.80;15.05;;;;;;;;;;4999744;28;20037;-89
2021/12/18 08:37:09;;;;;;;23.98;12.10;;;;;;;;;;5980837;22;20440;-88
2021/12/18 08:42:45;;;;;;;24.80;12.55;;;;;;;;;;4999619;28;20041;-85
2021/12/18 08:45:11;;;;;;;27.60;12.60;;;;;;;;;;4997320;28;20023;-86
2021/12/18 08:47:38;;;;;;;23.15;13.18;;;;;;;;;;4976875;28;20031;-87
2021/12/18 08:50:06;;;;;;;25.70;13.40;;;;;;;;;;4981180;28;20058;-86
2021/12/18 08:52:32;;;;;;;23.42;12.85;;;;;;;;;;4982474;28;20027;-86
2021/12/18 08:54:59;;;;;;;27.02;11.95;;;;;;;;;;4964696;28;20115;-86
2021/12/18 08:57:28;;;;;;;25.83;12.23;;;;;;;;;;4974867;28;20030;-87
2021/12/18 09:00:29;;;;;;;24.55;12.60;;;;;;;;;;4976608;28;20066;-86
2021/12/18 09:03:01;;;;;;;25.80;13.52;;;;;;;;;;4974425;28;20150;-88
2021/12/18 09:05:28;;;;;;;24.70;13.77;;;;;;;;;;4977257;28;20077;-87
2021/12/18 09:08:09;;;;;;;22.63;11.45;;;;;;;;;;4977220;28;20050;-88
2021/12/18 09:10:35;;;;;;;22.50;12.63;;;;;;;;;;4968648;28;20477;-85
2021/12/18 09:13:01;;;;;;;21.40;11.35;;;;;;;;;;4976669;28;20026;-84
2021/12/18 09:15:27;;;;;;;24.67;12.63;;;;;;;;;;4977712;28;20026;-84
2021/12/18 09:17:53;;;;;;;21.10;11.80;;;;;;;;;;4977510;28;20053;-85
2021/12/18 09:20:20;;;;;;;27.65;12.30;;;;;;;;;;4977213;28;20034;-85
2021/12/18 09:22:46;;;;;;;21.98;12.05;;;;;;;;;;4976817;28;20037;-84
2021/12/18 09:25:17;;;;;;;20.45;11.40;;;;;;;;;;4977961;28;20440;-87
2021/12/18 09:27:43;;;;;;;20.35;11.48;;;;;;;;;;4976686;28;20033;-86
2021/12/18 09:30:11;;;;;;;21.45;11.15;;;;;;;;;;4977199;28;20380;-85
2021/12/18 09:32:40;;;;;;;23.10;12.38;;;;;;;;;;4976244;28;20027;-85
2021/12/18 09:35:07;;;;;;;21.05;11.07;;;;;;;;;;4976165;28;20045;-85
2021/12/18 09:37:39;;;;;;;23.25;11.45;;;;;;;;;;4976038;28;20427;-85
2021/12/18 09:40:06;;;;;;;22.15;12.05;;;;;;;;;;4980647;28;20039;-85
2021/12/18 09:42:32;;;;;;;24.85;11.77;;;;;;;;;;4975846;28;20043;-86
2021/12/18 09:45:23;;;;;;;23.17;11.57;;;;;;;;;;4991631;28;20050;-87
2021/12/18 09:50:37;;;;;;;22.13;12.02;;;;;;;;;;4985466;28;20134;-86
2021/12/18 09:53:03;;;;;;;19.48;11.43;;;;;;;;;;4976868;28;20027;-86
2021/12/18 09:56:07;;;;;;;20.55;10.90;;;;;;;;;;4974416;28;20054;-85
2021/12/18 09:58:46;;;;;;;22.98;11.48;;;;;;;;;;4975447;28;20027;-87
2021/12/18 10:01:13;;;;;;;23.77;11.13;;;;;;;;;;4968660;28;20038;-86
2021/12/18 10:03:58;;;;;;;20.88;11.93;;;;;;;;;;4975646;28;20046;-87
2021/12/18 10:06:44;;;;;;;26.70;12.90;;;;;;;;;;4983761;28;20034;-86
2021/12/18 10:09:31;;;;;;;19.40;10.85;;;;;;;;;;4974408;28;20496;-84
2021/12/18 10:12:15;;;;;;;22.35;11.15;;;;;;;;;;4975860;28;20026;-88
2021/12/18 10:14:50;;;;;;;17.63;10.60;;;;;;;;;;4973688;28;20026;-87
2021/12/18 10:17:21;;;;;;;22.40;11.82;;;;;;;;;;4955815;28;20039;-88
2021/12/18 10:20:09;;;;;;;19.23;10.63;;;;;;;;;;4973378;28;20097;-88
2021/12/18 10:22:36;;;;;;;20.30;11.13;;;;;;;;;;4972737;28;20031;-88
2021/12/18 10:25:06;;;;;;;21.67;11.80;;;;;;;;;;4985158;28;20027;-89
2021/12/18 10:27:32;;;;;;;18.25;10.50;;;;;;;;;;4980872;28;20038;-88
2021/12/18 10:30:15;;;;;;;17.13;10.00;;;;;;;;;;4980330;28;20023;-87
2021/12/18 10:32:45;;;;;;;21.10;9.77;;;;;;;;;;4979063;28;20023;-88
2021/12/18 10:35:11;;;;;;;22.48;11.18;;;;;;;;;;4981035;28;20023;-87
2021/12/18 10:37:37;;;;;;;19.10;10.57;;;;;;;;;;4980675;28;20412;-84
2021/12/18 10:40:03;;;;;;;19.52;11.13;;;;;;;;;;4983556;28;20037;-85
2021/12/18 10:42:39;;;;;;;17.05;10.00;;;;;;;;;;4985203;28;20031;-85
2021/12/18 10:45:16;;;;;;;19.63;9.73;;;;;;;;;;4999510;28;20076;-85
2021/12/18 10:47:57;;;;;;;15.18;9.73;;;;;;;;;;5000921;28;20026;-86
2021/12/18 10:50:23;;;;;;;;;;;;;;;;;;4983830;28;20215;-85
2021/12/18 10:52:53;;;;;;;18.67;10.45;;;;;;;;;;4996327;28;19953;-86
2021/12/18 10:55:20;;;;;;;19.67;9.83;;;;;;;;;;4980709;28;20050;-85
2021/12/18 10:57:52;;;;;;;18.58;9.85;;;;;;;;;;4984652;28;20030;-85
2021/12/18 11:00:29;;;;;;;16.65;9.98;;;;;;;;;;4982741;28;20118;-85
2021/12/18 11:02:55;;;;;;;19.30;10.77;;;;;;;;;;4983090;28;20038;-84
2021/12/18 11:05:21;;;;;;;16.48;9.95;;;;;;;;;;4981865;28;20031;-85
2021/12/18 11:07:52;;;;;;;18.63;11.00;;;;;;;;;;4985207;28;20499;-84
2021/12/18 11:15:53;;;;;;;20.85;11.13;;;;;;;;;;4985622;28;20096;-84
2021/12/18 11:18:19;;;;;;;20.90;11.25;;;;;;;;;;4990469;28;20082;-85
2021/12/18 11:20:48;;;;;;;21.67;10.40;;;;;;;;;;4987572;28;20034;-85
2021/12/18 11:23:14;;;;;;;17.90;9.77;;;;;;;;;;4985226;28;20058;-86
2021/12/18 11:25:41;;;;;;;18.85;10.38;;;;;;;;;;4983737;28;20038;-85
2021/12/18 11:28:08;;;;;;;18.98;10.07;;;;;;;;;;4984386;28;20056;-85
2021/12/18 11:30:34;;;;;;;18.55;10.07;;;;;;;;;;4980520;28;20027;-85
2021/12/18 11:33:01;;;;;;;19.42;10.77;;;;;;;;;;4980130;28;20130;-86
2021/12/18 11:35:27;;;;;;;22.40;10.38;;;;;;;;;;4977008;28;20118;-87
2021/12/18 11:38:07;;;;;;;18.98;10.40;;;;;;;;;;4975763;28;20031;-86
2021/12/18 11:40:35;;;;;;;20.30;10.45;;;;;;;;;;4978533;28;20026;-87
2021/12/18 11:43:08;;;;;;;26.95;12.65;;;;;;;;;;4978603;28;20023;-85
2021/12/18 11:45:35;;;;;;;22.75;12.50;;;;;;;;;;4978633;28;20551;-87
2021/12/18 11:48:03;;;;;;;27.23;13.27;;;;;;;;;;4976186;28;20042;-87
2021/12/18 11:50:33;;;;;;;31.48;13.93;;;;;;;;;;4983003;28;20023;-87
2021/12/18 11:52:59;;;;;;;32.13;14.90;;;;;;;;;;4988454;28;20042;-87
2021/12/18 11:55:26;;;;;;;32.95;15.57;;;;;;;;;;4985519;28;20412;-86
2021/12/18 11:57:54;;;;;;;30.67;15.35;;;;;;;;;;4986844;28;20491;-85
2021/12/18 12:00:23;;;;;;;33.08;16.00;;;;;;;;;;4993977;28;20026;-87
2021/12/18 12:02:51;;;;;;;31.75;16.67;;;;;;;;;;4992174;28;20050;-87
2021/12/18 12:05:18;;;;;;;34.80;16.75;;;;;;;;;;4991214;28;20050;-87
2021/12/18 12:07:45;;;;;;;34.58;16.60;;;;;;;;;;4993454;28;20101;-87
2021/12/18 12:10:21;;;;;;;37.17;17.05;;;;;;;;;;4990779;28;20030;-87
2021/12/18 12:12:55;;;;;;;36.70;17.48;;;;;;;;;;4995485;28;20034;-84
2021/12/18 12:15:28;;;;;;;35.67;16.70;;;;;;;;;;4991687;28;20094;-86
2021/12/18 12:17:56;;;;;;;35.47;17.27;;;;;;;;;;4987763;28;20109;-85
2021/12/18 12:20:33;;;;;;;36.33;16.85;;;;;;;;;;4983760;28;20492;-83
2021/12/18 12:23:01;;;;;;;36.33;17.40;;;;;;;;;;4985522;28;20049;-82
2021/12/18 12:25:33;;;;;;;37.38;18.23;;;;;;;;;;4984280;28;20046;-82
2021/12/18 12:28:08;;;;;;;39.97;18.33;;;;;;;;;;4982758;28;20030;-83
2021/12/18 12:30:45;;;;;;;40.25;17.83;;;;;;;;;;4982315;28;20476;-83
2021/12/18 12:33:13;;;;;;;33.33;16.88;;;;;;;;;;4980532;28;20042;-83
2021/12/18 12:36:14;;;;;;;35.92;17.38;;;;;;;;;;4982840;28;20054;-82
2021/12/18 12:38:43;;;;;;;35.60;16.30;;;;;;;;;;4924202;29;20047;-83
2021/12/18 12:41:47;;;;;;;33.85;16.85;;;;;;;;;;4967581;28;20074;-83
2021/12/18 12:44:25;;;;;;;34.65;17.48;;;;;;;;;;4972043;28;20038;-83
2021/12/18 12:47:10;;;;;;;31.73;15.85;;;;;;;;;;5006138;28;20034;-83
2021/12/18 12:49:36;;;;;;;31.92;16.75;;;;;;;;;;5004499;28;20041;-83
2021/12/18 12:52:07;;;;;;;35.38;18.27;;;;;;;;;;4985066;28;20116;-83
2021/12/18 12:54:42;;;;;;;39.20;18.33;;;;;;;;;;4983820;28;20396;-83
2021/12/18 12:57:25;;;;;;;33.20;17.50;;;;;;;;;;4982309;28;20026;-83
2021/12/18 12:59:51;;;;;;;39.97;19.80;;;;;;;;;;4981833;28;20035;-84
2021/12/18 13:02:20;;;;;;;36.30;18.77;;;;;;;;;;4981352;28;20473;-83
2021/12/18 13:04:47;;;;;;;34.78;18.00;;;;;;;;;;4978151;28;20314;-84
2021/12/18 13:07:13;;;;;;;37.20;18.27;;;;;;;;;;4978940;28;20030;-85
2021/12/18 13:09:49;;;;;;;38.25;18.35;;;;;;;;;;4977524;28;20163;-84
2021/12/18 13:12:15;;;;;;;36.25;18.08;;;;;;;;;;4969830;28;20023;-83
2021/12/18 13:14:42;;;;;;;39.15;20.13;;;;;;;;;;4978303;28;20511;-82
2021/12/18 13:17:17;;;;;;;38.67;19.63;;;;;;;;;;4979399;28;20027;-84
2021/12/18 13:20:00;;;;;;;36.42;18.67;;;;;;;;;;4981071;28;20026;-84
2021/12/18 13:22:32;;;;;;;33.40;17.98;;;;;;;;;;4979420;28;20074;-84
2021/12/18 13:25:15;;;;;;;40.58;19.15;;;;;;;;;;4980851;28;20528;-83
2021/12/18 13:27:42;;;;;;;36.88;18.48;;;;;;;;;;4988846;28;20031;-82
2021/12/18 13:30:19;;;;;;;36.72;18.55;;;;;;;;;;4993277;28;20027;-82
2021/12/18 13:32:52;;;;;;;38.25;18.65;;;;;;;;;;4992512;28;20093;-84
2021/12/18 13:35:19;;;;;;;37.25;17.48;;;;;;;;;;4984525;28;20042;-84
2021/12/18 13:37:59;;;;;;;33.00;17.63;;;;;;;;;;4982301;28;20071;-84
2021/12/18 13:40:25;;;;;;;32.75;17.20;;;;;;;;;;4983323;28;20035;-84
2021/12/18 13:43:09;;;;;;;39.30;18.58;;;;;;;;;;4981961;28;20426;-84
2021/12/18 13:45:56;;;;;;;33.67;17.58;;;;;;;;;;4981242;28;20023;-84
2021/12/18 13:48:26;;;;;;;36.63;18.30;;;;;;;;;;4980536;28;20031;-84
2021/12/18 13:50:54;;;;;;;33.83;18.40;;;;;;;;;;4979761;28;20105;-84
2021/12/18 13:53:20;;;;;;;36.00;17.95;;;;;;;;;;4981267;28;20026;-84
2021/12/18 13:55:51;;;;;;;35.20;18.05;;;;;;;;;;4983268;28;20083;-83
2021/12/18 13:58:26;;;;;;;34.22;17.38;;;;;;;;;;4980718;28;20045;-83
2021/12/18 14:01:01;;;;;;;38.90;18.08;;;;;;;;;;4980999;28;20023;-82
2021/12/18 14:03:30;;;;;;;36.42;18.15;;;;;;;;;;4980732;28;20034;-82
2021/12/18 14:05:58;;;;;;;35.20;18.17;;;;;;;;;;4979883;28;20033;-82
2021/12/18 14:08:24;;;;;;;33.25;16.95;;;;;;;;;;4980500;28;20034;-84
2021/12/18 14:10:50;;;;;;;33.33;17.75;;;;;;;;;;4982302;28;20047;-81
2021/12/18 14:13:16;;;;;;;35.92;18.45;;;;;;;;;;4983040;28;20372;-82
2021/12/18 14:15:43;;;;;;;32.97;17.40;;;;;;;;;;4982473;28;20027;-84
2021/12/18 14:18:27;;;;;;;36.95;18.25;;;;;;;;;;4981798;28;20023;-83
2021/12/18 14:20:53;;;;;;;34.05;16.77;;;;;;;;;;4982419;28;20030;-82
2021/12/18 14:23:19;;;;;;;32.92;16.77;;;;;;;;;;4980489;28;20027;-82
2021/12/18 14:25:46;;;;;;;34.88;17.38;;;;;;;;;;4982638;28;20035;-82
2021/12/18 14:28:19;;;;;;;31.83;16.25;;;;;;;;;;4981276;28;20121;-84
2021/12/18 14:30:46;;;;;;;31.30;15.98;;;;;;;;;;4981326;28;20023;-84
2021/12/18 14:33:14;;;;;;;31.67;16.30;;;;;;;;;;4986829;28;20026;-83
2021/12/18 14:35:54;;;;;;;31.48;15.57;;;;;;;;;;4993534;28;20232;-84
2021/12/18 14:38:22;;;;;;;36.55;16.92;;;;;;;;;;4993564;28;20035;-84
2021/12/18 14:40:57;;;;;;;34.10;16.73;;;;;;;;;;4985605;28;20023;-84
2021/12/18 14:43:25;;;;;;;32.53;15.25;;;;;;;;;;4986334;28;20046;-83
2021/12/18 14:45:51;;;;;;;33.45;14.65;;;;;;;;;;4992519;28;20113;-83
2021/12/18 14:48:27;;;;;;;32.08;15.25;;;;;;;;;;4979453;28;20030;-84
2021/12/18 14:50:53;;;;;;;35.97;17.13;;;;;;;;;;4980567;28;20087;-84
2021/12/18 14:53:21;;;;;;;32.78;15.80;;;;;;;;;;4977623;28;20603;-84
2021/12/18 14:55:48;;;;;;;32.05;15.43;;;;;;;;;;4978619;28;20092;-84
2021/12/18 14:58:17;;;;;;;35.65;16.52;;;;;;;;;;4976573;28;20034;-84
2021/12/18 15:00:45;;;;;;;35.22;15.05;;;;;;;;;;4978602;28;20031;-84
2021/12/18 15:03:16;;;;;;;30.33;14.48;;;;;;;;;;4978194;28;20042;-84
2021/12/18 15:05:42;;;;;;;;;;;;;;;;;;4978825;28;20085;-84
2021/12/18 15:08:12;;;;;;;28.50;13.48;;;;;;;;;;4976349;28;19918;-84
2021/12/18 15:10:54;;;;;;;31.65;14.73;;;;;;;;;;4983825;28;20087;-85
2021/12/18 15:13:24;;;;;;;28.77;13.25;;;;;;;;;;4999077;28;20022;-85
2021/12/18 15:16:26;;;;;;;28.83;13.38;;;;;;;;;;4976662;28;20081;-84
2021/12/18 15:18:52;;;;;;;25.48;12.32;;;;;;;;;;4936850;29;20031;-84
2021/12/18 15:21:19;;;;;;;26.42;11.95;;;;;;;;;;4968937;28;20126;-84
2021/12/18 15:23:48;;;;;;;22.52;11.45;;;;;;;;;;4977097;28;20436;-85
2021/12/18 15:26:14;;;;;;;21.92;10.95;;;;;;;;;;4976898;28;20074;-86
2021/12/18 15:28:40;;;;;;;23.98;12.15;;;;;;;;;;4978320;28;20133;-84
2021/12/18 15:31:07;;;;;;;26.13;11.95;;;;;;;;;;4977983;28;20018;-84
2021/12/18 15:33:33;;;;;;;25.38;11.75;;;;;;;;;;4984085;28;20052;-84
2021/12/18 15:35:59;;;;;;;23.50;11.43;;;;;;;;;;4977803;28;20089;-81
2021/12/18 15:38:25;;;;;;;23.73;11.02;;;;;;;;;;4975981;28;20126;-82
2021/12/18 15:40:52;;;;;;;21.30;11.75;;;;;;;;;;4977086;28;20038;-81